sensor_id;sensor_type;location;lat;lon;timestamp;temperature;humidity
25024;DHT22;13033;50.936;5.334;2023-08-06T00:00:25;16.00;99.90
25024;DHT22;13033;50.936;5.334;2023-08-06T00:02:51;16.00;99.90
25024;DHT22;13033;50.936;5.334;2023-08-06T00:05:16;16.00;99.90
25024;DHT22;13033;50.936;5.334;2023-08-06T00:07:44;16.10;99.90
25024;DHT22;13033;50.936;5.334;2023-08-06T00:10:10;16.00;99.90
25024;DHT22;13033;50.936;5.334;2023-08-06T00:12:36;16.00;99.90
25024;DHT22;13033;50.936;5.334;2023-08-06T00:15:02;16.00;99.90
25024;DHT22;13033;50.936;5.334;2023-08-06T00:17:27;16.20;99.90
25024;DHT22;13033;50.936;5.334;2023-08-06T00:19:53;16.00;99.90
25024;DHT22;13033;50.936;5.334;2023-08-06T00:22:19;16.10;99.90
25024;DHT22;13033;50.936;5.334;2023-08-06T00:24:44;16.10;99.90
25024;DHT22;13033;50.936;5.334;2023-08-06T00:27:10;16.10;99.90
25024;DHT22;13033;50.936;5.334;2023-08-06T00:29:36;16.20;99.90
25024;DHT22;13033;50.936;5.334;2023-08-06T00:32:01;16.40;99.90
25024;DHT22;13033;50.936;5.334;2023-08-06T00:34:27;16.40;99.90
25024;DHT22;13033;50.936;5.334;2023-08-06T00:36:53;16.40;99.90
25024;DHT22;13033;50.936;5.334;2023-08-06T00:39:19;16.40;99.90
25024;DHT22;13033;50.936;5.334;2023-08-06T00:41:45;16.20;99.90
25024;DHT22;13033;50.936;5.334;2023-08-06T00:44:10;16.30;99.90
25024;DHT22;13033;50.936;5.334;2023-08-06T00:46:36;16.20;99.90
25024;DHT22;13033;50.936;5.334;2023-08-06T00:49:02;16.10;99.90
25024;DHT22;13033;50.936;5.334;2023-08-06T00:51:28;16.20;99.90
25024;DHT22;13033;50.936;5.334;2023-08-06T00:53:54;16.10;99.90
25024;DHT22;13033;50.936;5.334;2023-08-06T00:56:21;16.10;99.90
25024;DHT22;13033;50.936;5.334;2023-08-06T00:58:47;15.80;99.90
25024;DHT22;13033;50.936;5.334;2023-08-06T01:01:13;15.80;99.90
25024;DHT22;13033;50.936;5.334;2023-08-06T01:03:39;15.90;99.90
25024;DHT22;13033;50.936;5.334;2023-08-06T01:06:04;16.00;99.90
25024;DHT22;13033;50.936;5.334;2023-08-06T01:08:58;15.90;99.90
25024;DHT22;13033;50.936;5.334;2023-08-06T01:14:07;16.00;99.90
25024;DHT22;13033;50.936;5.334;2023-08-06T01:16:33;15.90;99.90
25024;DHT22;13033;50.936;5.334;2023-08-06T01:19:00;16.20;99.90
25024;DHT22;13033;50.936;5.334;2023-08-06T01:21:25;16.10;99.90
25024;DHT22;13033;50.936;5.334;2023-08-06T01:23:51;16.10;99.90
25024;DHT22;13033;50.936;5.334;2023-08-06T01:26:45;16.10;99.90
25024;DHT22;13033;50.936;5.334;2023-08-06T01:29:52;16.20;99.90
25024;DHT22;13033;50.936;5.334;2023-08-06T01:32:10;16.30;99.90
25024;DHT22;13033;50.936;5.334;2023-08-06T01:34:38;16.30;99.90
25024;DHT22;13033;50.936;5.334;2023-08-06T01:37:04;16.10;99.90
25024;DHT22;13033;50.936;5.334;2023-08-06T01:39:33;16.00;99.90
25024;DHT22;13033;50.936;5.334;2023-08-06T01:41:59;16.00;99.90
25024;DHT22;13033;50.936;5.334;2023-08-06T01:44:24;15.90;99.90
25024;DHT22;13033;50.936;5.334;2023-08-06T01:46:50;15.80;99.90
25024;DHT22;13033;50.936;5.334;2023-08-06T01:49:16;15.80;99.90
25024;DHT22;13033;50.936;5.334;2023-08-06T01:51:41;15.80;99.90
25024;DHT22;13033;50.936;5.334;2023-08-06T01:54:07;15.60;99.90
25024;DHT22;13033;50.936;5.334;2023-08-06T01:56:32;15.70;99.90
25024;DHT22;13033;50.936;5.334;2023-08-06T01:58:58;15.80;99.90
25024;DHT22;13033;50.936;5.334;2023-08-06T02:01:24;15.80;99.90
25024;DHT22;13033;50.936;5.334;2023-08-06T02:03:49;15.80;99.90
25024;DHT22;13033;50.936;5.334;2023-08-06T02:06:15;15.70;99.90
25024;DHT22;13033;50.936;5.334;2023-08-06T02:08:41;15.90;99.90
25024;DHT22;13033;50.936;5.334;2023-08-06T02:11:06;15.90;99.90
25024;DHT22;13033;50.936;5.334;2023-08-06T02:13:32;15.80;99.90
25024;DHT22;13033;50.936;5.334;2023-08-06T02:15:57;15.90;99.90
25024;DHT22;13033;50.936;5.334;2023-08-06T02:18:23;15.80;99.90
25024;DHT22;13033;50.936;5.334;2023-08-06T02:20:58;15.90;99.90
25024;DHT22;13033;50.936;5.334;2023-08-06T02:23:24;15.90;99.90
25024;DHT22;13033;50.936;5.334;2023-08-06T02:26:03;15.90;99.90
25024;DHT22;13033;50.936;5.334;2023-08-06T02:28:30;15.80;99.90
25024;DHT22;13033;50.936;5.334;2023-08-06T02:30:56;15.80;99.90
25024;DHT22;13033;50.936;5.334;2023-08-06T02:33:22;15.80;99.90
25024;DHT22;13033;50.936;5.334;2023-08-06T02:35:48;15.80;99.90
25024;DHT22;13033;50.936;5.334;2023-08-06T02:38:13;15.90;99.90
25024;DHT22;13033;50.936;5.334;2023-08-06T02:40:46;15.90;99.90
25024;DHT22;13033;50.936;5.334;2023-08-06T02:43:12;15.80;99.90
25024;DHT22;13033;50.936;5.334;2023-08-06T02:45:37;15.80;99.90
25024;DHT22;13033;50.936;5.334;2023-08-06T02:48:03;15.90;99.90
25024;DHT22;13033;50.936;5.334;2023-08-06T02:50:29;15.90;99.90
25024;DHT22;13033;50.936;5.334;2023-08-06T02:52:55;15.80;99.90
25024;DHT22;13033;50.936;5.334;2023-08-06T02:55:20;15.80;99.90
25024;DHT22;13033;50.936;5.334;2023-08-06T02:57:46;15.80;99.90
25024;DHT22;13033;50.936;5.334;2023-08-06T03:00:11;15.90;99.90
25024;DHT22;13033;50.936;5.334;2023-08-06T03:02:37;15.90;99.90
25024;DHT22;13033;50.936;5.334;2023-08-06T03:05:03;16.00;99.90
25024;DHT22;13033;50.936;5.334;2023-08-06T03:07:29;15.90;99.90
25024;DHT22;13033;50.936;5.334;2023-08-06T03:09:55;16.00;99.90
25024;DHT22;13033;50.936;5.334;2023-08-06T03:12:20;16.00;99.90
25024;DHT22;13033;50.936;5.334;2023-08-06T03:14:46;16.30;99.90
25024;DHT22;13033;50.936;5.334;2023-08-06T03:17:11;16.20;99.90
25024;DHT22;13033;50.936;5.334;2023-08-06T03:19:37;16.10;99.90
25024;DHT22;13033;50.936;5.334;2023-08-06T03:22:03;16.10;99.90
25024;DHT22;13033;50.936;5.334;2023-08-06T03:24:28;16.20;99.90
25024;DHT22;13033;50.936;5.334;2023-08-06T03:26:54;16.20;99.90
25024;DHT22;13033;50.936;5.334;2023-08-06T03:29:20;16.20;99.90
25024;DHT22;13033;50.936;5.334;2023-08-06T03:31:47;16.10;99.90
25024;DHT22;13033;50.936;5.334;2023-08-06T03:34:12;16.30;99.90
25024;DHT22;13033;50.936;5.334;2023-08-06T03:36:38;16.40;99.90
25024;DHT22;13033;50.936;5.334;2023-08-06T03:39:03;16.50;99.90
25024;DHT22;13033;50.936;5.334;2023-08-06T03:41:30;16.50;99.90
25024;DHT22;13033;50.936;5.334;2023-08-06T03:43:55;16.40;99.90
25024;DHT22;13033;50.936;5.334;2023-08-06T03:46:21;16.60;99.90
25024;DHT22;13033;50.936;5.334;2023-08-06T03:48:47;16.70;99.90
25024;DHT22;13033;50.936;5.334;2023-08-06T03:51:12;16.70;99.90
25024;DHT22;13033;50.936;5.334;2023-08-06T03:53:38;16.70;99.90
25024;DHT22;13033;50.936;5.334;2023-08-06T03:56:04;16.70;99.90
25024;DHT22;13033;50.936;5.334;2023-08-06T03:58:29;16.70;99.90
25024;DHT22;13033;50.936;5.334;2023-08-06T04:01:02;16.70;99.90
25024;DHT22;13033;50.936;5.334;2023-08-06T04:03:28;16.50;99.90
25024;DHT22;13033;50.936;5.334;2023-08-06T04:05:54;16.60;99.90
25024;DHT22;13033;50.936;5.334;2023-08-06T04:08:20;16.60;99.90
25024;DHT22;13033;50.936;5.334;2023-08-06T04:10:49;16.50;99.90
25024;DHT22;13033;50.936;5.334;2023-08-06T04:13:15;16.50;99.90
25024;DHT22;13033;50.936;5.334;2023-08-06T04:15:41;16.50;99.90
25024;DHT22;13033;50.936;5.334;2023-08-06T04:18:06;16.40;99.90
25024;DHT22;13033;50.936;5.334;2023-08-06T04:20:32;16.50;99.90
25024;DHT22;13033;50.936;5.334;2023-08-06T04:22:57;16.70;99.90
25024;DHT22;13033;50.936;5.334;2023-08-06T04:25:23;16.70;99.90
25024;DHT22;13033;50.936;5.334;2023-08-06T04:27:49;16.60;99.90
25024;DHT22;13033;50.936;5.334;2023-08-06T04:30:14;16.60;99.90
25024;DHT22;13033;50.936;5.334;2023-08-06T04:32:41;16.80;99.90
25024;DHT22;13033;50.936;5.334;2023-08-06T04:35:07;16.80;99.90
25024;DHT22;13033;50.936;5.334;2023-08-06T04:37:33;16.80;99.90
25024;DHT22;13033;50.936;5.334;2023-08-06T04:39:58;16.70;99.90
25024;DHT22;13033;50.936;5.334;2023-08-06T04:42:24;16.70;99.90
25024;DHT22;13033;50.936;5.334;2023-08-06T04:44:50;16.70;99.90
25024;DHT22;13033;50.936;5.334;2023-08-06T04:47:16;16.80;99.90
25024;DHT22;13033;50.936;5.334;2023-08-06T04:49:42;16.60;99.90
25024;DHT22;13033;50.936;5.334;2023-08-06T04:52:07;16.60;99.90
25024;DHT22;13033;50.936;5.334;2023-08-06T04:54:33;16.70;99.90
25024;DHT22;13033;50.936;5.334;2023-08-06T04:56:59;16.80;99.90
25024;DHT22;13033;50.936;5.334;2023-08-06T04:59:25;16.80;99.90
25024;DHT22;13033;50.936;5.334;2023-08-06T05:01:50;16.80;99.90
25024;DHT22;13033;50.936;5.334;2023-08-06T05:04:16;16.90;99.90
25024;DHT22;13033;50.936;5.334;2023-08-06T05:06:41;16.80;99.90
25024;DHT22;13033;50.936;5.334;2023-08-06T05:09:07;16.90;99.90
25024;DHT22;13033;50.936;5.334;2023-08-06T05:11:33;16.70;99.90
25024;DHT22;13033;50.936;5.334;2023-08-06T05:13:59;16.70;99.90
25024;DHT22;13033;50.936;5.334;2023-08-06T05:16:24;16.70;99.90
25024;DHT22;13033;50.936;5.334;2023-08-06T05:18:50;16.70;99.90
25024;DHT22;13033;50.936;5.334;2023-08-06T05:21:15;16.50;99.90
25024;DHT22;13033;50.936;5.334;2023-08-06T05:23:42;16.40;99.90
25024;DHT22;13033;50.936;5.334;2023-08-06T05:26:07;16.30;99.90
25024;DHT22;13033;50.936;5.334;2023-08-06T05:28:34;16.20;99.90
25024;DHT22;13033;50.936;5.334;2023-08-06T05:31:03;16.20;99.90
25024;DHT22;13033;50.936;5.334;2023-08-06T05:33:30;16.30;99.90
25024;DHT22;13033;50.936;5.334;2023-08-06T05:35:55;16.20;99.90
25024;DHT22;13033;50.936;5.334;2023-08-06T05:38:21;16.30;99.90
25024;DHT22;13033;50.936;5.334;2023-08-06T05:40:46;16.20;99.90
25024;DHT22;13033;50.936;5.334;2023-08-06T05:43:12;16.10;99.90
25024;DHT22;13033;50.936;5.334;2023-08-06T05:45:38;16.10;99.90
25024;DHT22;13033;50.936;5.334;2023-08-06T05:48:04;16.10;99.90
25024;DHT22;13033;50.936;5.334;2023-08-06T05:50:30;16.10;99.90
25024;DHT22;13033;50.936;5.334;2023-08-06T05:52:55;16.00;99.90
25024;DHT22;13033;50.936;5.334;2023-08-06T05:55:21;16.00;99.90
25024;DHT22;13033;50.936;5.334;2023-08-06T05:57:47;16.10;99.90
25024;DHT22;13033;50.936;5.334;2023-08-06T06:00:12;16.10;99.90
25024;DHT22;13033;50.936;5.334;2023-08-06T06:02:38;16.00;99.90
25024;DHT22;13033;50.936;5.334;2023-08-06T06:05:04;16.00;99.90
25024;DHT22;13033;50.936;5.334;2023-08-06T06:07:30;15.90;99.90
25024;DHT22;13033;50.936;5.334;2023-08-06T06:09:55;15.80;99.90
25024;DHT22;13033;50.936;5.334;2023-08-06T06:12:21;15.70;99.90
25024;DHT22;13033;50.936;5.334;2023-08-06T06:14:47;15.80;99.90
25024;DHT22;13033;50.936;5.334;2023-08-06T06:17:13;15.80;99.90
25024;DHT22;13033;50.936;5.334;2023-08-06T06:19:39;15.60;99.90
25024;DHT22;13033;50.936;5.334;2023-08-06T06:22:04;15.50;99.90
25024;DHT22;13033;50.936;5.334;2023-08-06T06:24:30;15.30;99.90
25024;DHT22;13033;50.936;5.334;2023-08-06T06:26:56;15.10;99.90
25024;DHT22;13033;50.936;5.334;2023-08-06T06:29:21;15.00;99.90
25024;DHT22;13033;50.936;5.334;2023-08-06T06:31:47;14.90;99.90
25024;DHT22;13033;50.936;5.334;2023-08-06T06:34:12;14.70;99.90
25024;DHT22;13033;50.936;5.334;2023-08-06T06:36:38;14.70;99.90
25024;DHT22;13033;50.936;5.334;2023-08-06T06:39:04;14.50;99.90
25024;DHT22;13033;50.936;5.334;2023-08-06T06:41:30;14.50;99.90
25024;DHT22;13033;50.936;5.334;2023-08-06T06:43:58;14.50;99.90
25024;DHT22;13033;50.936;5.334;2023-08-06T06:46:24;14.50;99.90
25024;DHT22;13033;50.936;5.334;2023-08-06T06:48:49;14.50;99.90
25024;DHT22;13033;50.936;5.334;2023-08-06T06:51:15;14.50;99.90
25024;DHT22;13033;50.936;5.334;2023-08-06T06:53:40;14.40;99.90
25024;DHT22;13033;50.936;5.334;2023-08-06T06:56:06;14.40;99.90
25024;DHT22;13033;50.936;5.334;2023-08-06T06:58:32;14.30;99.90
25024;DHT22;13033;50.936;5.334;2023-08-06T07:00:59;14.40;99.90
25024;DHT22;13033;50.936;5.334;2023-08-06T07:03:25;14.40;99.90
25024;DHT22;13033;50.936;5.334;2023-08-06T07:05:51;14.40;99.90
25024;DHT22;13033;50.936;5.334;2023-08-06T07:08:17;14.30;99.90
25024;DHT22;13033;50.936;5.334;2023-08-06T07:10:42;14.40;99.90
25024;DHT22;13033;50.936;5.334;2023-08-06T07:13:09;14.40;99.90
25024;DHT22;13033;50.936;5.334;2023-08-06T07:15:34;14.50;99.90
25024;DHT22;13033;50.936;5.334;2023-08-06T07:18:01;14.50;99.90
25024;DHT22;13033;50.936;5.334;2023-08-06T07:20:26;14.60;99.90
25024;DHT22;13033;50.936;5.334;2023-08-06T07:22:57;14.60;99.90
25024;DHT22;13033;50.936;5.334;2023-08-06T07:25:22;14.70;99.90
25024;DHT22;13033;50.936;5.334;2023-08-06T07:27:48;14.70;99.90
25024;DHT22;13033;50.936;5.334;2023-08-06T07:30:13;14.70;99.90
25024;DHT22;13033;50.936;5.334;2023-08-06T07:32:39;14.80;99.90
25024;DHT22;13033;50.936;5.334;2023-08-06T07:35:05;14.80;99.90
25024;DHT22;13033;50.936;5.334;2023-08-06T07:37:33;14.70;99.90
25024;DHT22;13033;50.936;5.334;2023-08-06T07:39:59;14.70;99.90
25024;DHT22;13033;50.936;5.334;2023-08-06T07:42:24;14.70;99.90
25024;DHT22;13033;50.936;5.334;2023-08-06T07:44:54;14.70;99.90
25024;DHT22;13033;50.936;5.334;2023-08-06T07:47:21;14.70;99.90
25024;DHT22;13033;50.936;5.334;2023-08-06T07:49:47;14.70;99.90
25024;DHT22;13033;50.936;5.334;2023-08-06T07:52:12;14.70;99.90
25024;DHT22;13033;50.936;5.334;2023-08-06T07:54:38;14.70;99.90
25024;DHT22;13033;50.936;5.334;2023-08-06T07:57:04;14.80;99.90
25024;DHT22;13033;50.936;5.334;2023-08-06T07:59:30;14.70;99.90
25024;DHT22;13033;50.936;5.334;2023-08-06T08:01:56;14.70;99.90
25024;DHT22;13033;50.936;5.334;2023-08-06T08:04:21;14.70;99.90
25024;DHT22;13033;50.936;5.334;2023-08-06T08:06:47;14.70;99.90
25024;DHT22;13033;50.936;5.334;2023-08-06T08:09:13;14.70;99.90
25024;DHT22;13033;50.936;5.334;2023-08-06T08:11:40;14.70;99.90
25024;DHT22;13033;50.936;5.334;2023-08-06T08:14:06;14.80;99.90
25024;DHT22;13033;50.936;5.334;2023-08-06T08:16:31;14.80;99.90
25024;DHT22;13033;50.936;5.334;2023-08-06T08:18:57;14.80;99.90
25024;DHT22;13033;50.936;5.334;2023-08-06T08:21:23;14.80;99.90
25024;DHT22;13033;50.936;5.334;2023-08-06T08:23:50;14.80;99.90
25024;DHT22;13033;50.936;5.334;2023-08-06T08:26:16;14.80;99.90
25024;DHT22;13033;50.936;5.334;2023-08-06T08:28:41;14.80;99.90
25024;DHT22;13033;50.936;5.334;2023-08-06T08:31:11;14.80;99.90
25024;DHT22;13033;50.936;5.334;2023-08-06T08:33:40;14.80;99.90
25024;DHT22;13033;50.936;5.334;2023-08-06T08:36:05;14.80;99.90
25024;DHT22;13033;50.936;5.334;2023-08-06T08:38:31;14.80;99.90
25024;DHT22;13033;50.936;5.334;2023-08-06T08:40:56;14.90;99.90
25024;DHT22;13033;50.936;5.334;2023-08-06T08:43:23;14.90;99.90
25024;DHT22;13033;50.936;5.334;2023-08-06T08:45:53;15.00;99.90
25024;DHT22;13033;50.936;5.334;2023-08-06T08:48:21;15.10;99.90
25024;DHT22;13033;50.936;5.334;2023-08-06T08:50:49;15.10;99.90
25024;DHT22;13033;50.936;5.334;2023-08-06T08:53:16;15.10;99.90
25024;DHT22;13033;50.936;5.334;2023-08-06T08:55:43;15.00;99.90
25024;DHT22;13033;50.936;5.334;2023-08-06T08:58:10;15.00;99.90
25024;DHT22;13033;50.936;5.334;2023-08-06T09:00:36;14.90;99.90
25024;DHT22;13033;50.936;5.334;2023-08-06T09:03:02;14.90;99.90
25024;DHT22;13033;50.936;5.334;2023-08-06T09:05:30;14.90;99.90
25024;DHT22;13033;50.936;5.334;2023-08-06T09:08:05;14.80;99.90
25024;DHT22;13033;50.936;5.334;2023-08-06T09:10:31;14.80;99.90
25024;DHT22;13033;50.936;5.334;2023-08-06T09:12:57;14.90;99.90
25024;DHT22;13033;50.936;5.334;2023-08-06T09:15:26;15.00;99.90
25024;DHT22;13033;50.936;5.334;2023-08-06T09:17:53;15.00;99.90
25024;DHT22;13033;50.936;5.334;2023-08-06T09:20:19;15.10;99.90
25024;DHT22;13033;50.936;5.334;2023-08-06T09:22:45;15.20;99.90
25024;DHT22;13033;50.936;5.334;2023-08-06T09:25:21;15.30;99.90
25024;DHT22;13033;50.936;5.334;2023-08-06T09:27:50;15.40;99.90
25024;DHT22;13033;50.936;5.334;2023-08-06T09:30:32;15.40;99.90
25024;DHT22;13033;50.936;5.334;2023-08-06T09:32:58;15.40;99.90
25024;DHT22;13033;50.936;5.334;2023-08-06T09:35:24;15.40;99.90
25024;DHT22;13033;50.936;5.334;2023-08-06T09:37:50;15.50;99.90
25024;DHT22;13033;50.936;5.334;2023-08-06T09:40:30;15.50;99.90
25024;DHT22;13033;50.936;5.334;2023-08-06T09:42:56;15.50;99.90
25024;DHT22;13033;50.936;5.334;2023-08-06T09:45:24;15.50;99.90
25024;DHT22;13033;50.936;5.334;2023-08-06T09:47:57;15.60;99.90
25024;DHT22;13033;50.936;5.334;2023-08-06T09:50:23;15.50;99.90
25024;DHT22;13033;50.936;5.334;2023-08-06T09:52:52;15.40;99.90
25024;DHT22;13033;50.936;5.334;2023-08-06T09:55:18;15.40;99.90
25024;DHT22;13033;50.936;5.334;2023-08-06T09:57:45;15.40;99.90
25024;DHT22;13033;50.936;5.334;2023-08-06T10:00:12;15.20;99.90
25024;DHT22;13033;50.936;5.334;2023-08-06T10:02:39;15.30;99.90
25024;DHT22;13033;50.936;5.334;2023-08-06T10:05:06;15.40;99.90
25024;DHT22;13033;50.936;5.334;2023-08-06T10:07:32;15.50;99.90
25024;DHT22;13033;50.936;5.334;2023-08-06T10:09:58;15.70;99.90
25024;DHT22;13033;50.936;5.334;2023-08-06T10:12:26;15.60;99.90
25024;DHT22;13033;50.936;5.334;2023-08-06T10:14:56;15.60;99.90
25024;DHT22;13033;50.936;5.334;2023-08-06T10:17:23;15.70;99.90
25024;DHT22;13033;50.936;5.334;2023-08-06T10:19:50;15.70;99.90
25024;DHT22;13033;50.936;5.334;2023-08-06T10:22:18;15.60;99.90
25024;DHT22;13033;50.936;5.334;2023-08-06T10:25:00;15.60;99.90
25024;DHT22;13033;50.936;5.334;2023-08-06T10:27:40;15.50;99.90
25024;DHT22;13033;50.936;5.334;2023-08-06T10:33:01;15.30;99.90
25024;DHT22;13033;50.936;5.334;2023-08-06T10:35:43;15.20;99.90
25024;DHT22;13033;50.936;5.334;2023-08-06T10:43:38;15.10;99.90
25024;DHT22;13033;50.936;5.334;2023-08-06T10:46:09;15.10;99.90
25024;DHT22;13033;50.936;5.334;2023-08-06T10:48:36;15.00;99.90
25024;DHT22;13033;50.936;5.334;2023-08-06T10:51:03;15.00;99.90
25024;DHT22;13033;50.936;5.334;2023-08-06T10:53:29;15.10;99.90
25024;DHT22;13033;50.936;5.334;2023-08-06T10:55:54;15.10;99.90
25024;DHT22;13033;50.936;5.334;2023-08-06T10:58:20;15.20;99.90
25024;DHT22;13033;50.936;5.334;2023-08-06T11:00:46;15.20;99.90
25024;DHT22;13033;50.936;5.334;2023-08-06T11:03:12;15.20;99.90
25024;DHT22;13033;50.936;5.334;2023-08-06T11:05:38;15.20;99.90
25024;DHT22;13033;50.936;5.334;2023-08-06T11:08:04;15.20;99.90
25024;DHT22;13033;50.936;5.334;2023-08-06T11:10:32;15.20;99.90
25024;DHT22;13033;50.936;5.334;2023-08-06T11:13:03;15.20;99.90
25024;DHT22;13033;50.936;5.334;2023-08-06T11:15:30;15.20;99.90
25024;DHT22;13033;50.936;5.334;2023-08-06T11:17:56;15.30;99.90
25024;DHT22;13033;50.936;5.334;2023-08-06T11:20:22;15.20;99.90
25024;DHT22;13033;50.936;5.334;2023-08-06T11:22:48;15.10;99.90
25024;DHT22;13033;50.936;5.334;2023-08-06T11:25:14;15.20;99.90
25024;DHT22;13033;50.936;5.334;2023-08-06T11:27:39;15.20;99.90
25024;DHT22;13033;50.936;5.334;2023-08-06T11:30:05;15.10;99.90
25024;DHT22;13033;50.936;5.334;2023-08-06T11:32:31;15.00;99.90
25024;DHT22;13033;50.936;5.334;2023-08-06T11:34:58;15.00;99.90
25024;DHT22;13033;50.936;5.334;2023-08-06T11:37:24;15.00;99.90
25024;DHT22;13033;50.936;5.334;2023-08-06T11:39:51;15.00;99.90
25024;DHT22;13033;50.936;5.334;2023-08-06T11:42:17;15.10;99.90
25024;DHT22;13033;50.936;5.334;2023-08-06T11:44:42;15.20;99.90
25024;DHT22;13033;50.936;5.334;2023-08-06T11:47:13;15.30;99.90
25024;DHT22;13033;50.936;5.334;2023-08-06T11:52:24;15.50;99.90
25024;DHT22;13033;50.936;5.334;2023-08-06T11:55:02;15.60;99.90
25024;DHT22;13033;50.936;5.334;2023-08-06T11:57:39;15.80;99.90
25024;DHT22;13033;50.936;5.334;2023-08-06T12:00:13;16.10;99.90
25024;DHT22;13033;50.936;5.334;2023-08-06T12:02:40;15.90;99.90
25024;DHT22;13033;50.936;5.334;2023-08-06T12:07:56;15.80;99.90
25024;DHT22;13033;50.936;5.334;2023-08-06T12:10:23;15.70;99.90
25024;DHT22;13033;50.936;5.334;2023-08-06T12:12:49;15.60;99.90
25024;DHT22;13033;50.936;5.334;2023-08-06T12:15:16;15.50;99.90
25024;DHT22;13033;50.936;5.334;2023-08-06T12:17:42;15.40;99.90
25024;DHT22;13033;50.936;5.334;2023-08-06T12:20:08;15.40;99.90
25024;DHT22;13033;50.936;5.334;2023-08-06T12:22:35;15.30;99.90
25024;DHT22;13033;50.936;5.334;2023-08-06T12:25:02;15.20;99.90
25024;DHT22;13033;50.936;5.334;2023-08-06T12:27:44;15.00;99.90
25024;DHT22;13033;50.936;5.334;2023-08-06T12:30:11;15.00;99.90
25024;DHT22;13033;50.936;5.334;2023-08-06T12:32:37;15.00;99.90
25024;DHT22;13033;50.936;5.334;2023-08-06T12:35:03;15.10;99.90
25024;DHT22;13033;50.936;5.334;2023-08-06T12:37:29;15.20;99.90
25024;DHT22;13033;50.936;5.334;2023-08-06T12:39:55;15.20;99.90
25024;DHT22;13033;50.936;5.334;2023-08-06T12:42:20;15.20;99.90
25024;DHT22;13033;50.936;5.334;2023-08-06T12:44:49;15.30;99.90
25024;DHT22;13033;50.936;5.334;2023-08-06T12:47:16;15.50;99.90
25024;DHT22;13033;50.936;5.334;2023-08-06T12:49:42;15.40;99.90
25024;DHT22;13033;50.936;5.334;2023-08-06T12:52:07;15.40;99.90
25024;DHT22;13033;50.936;5.334;2023-08-06T12:54:34;15.30;99.90
25024;DHT22;13033;50.936;5.334;2023-08-06T12:57:04;15.30;99.90
25024;DHT22;13033;50.936;5.334;2023-08-06T12:59:30;15.20;99.90
25024;DHT22;13033;50.936;5.334;2023-08-06T13:01:56;15.20;99.90
25024;DHT22;13033;50.936;5.334;2023-08-06T13:04:22;15.30;99.90
25024;DHT22;13033;50.936;5.334;2023-08-06T13:06:47;15.40;99.90
25024;DHT22;13033;50.936;5.334;2023-08-06T13:09:15;15.50;99.90
25024;DHT22;13033;50.936;5.334;2023-08-06T13:11:41;15.50;99.90
25024;DHT22;13033;50.936;5.334;2023-08-06T13:14:09;15.50;99.90
25024;DHT22;13033;50.936;5.334;2023-08-06T13:16:36;15.50;99.90
25024;DHT22;13033;50.936;5.334;2023-08-06T13:19:02;15.40;99.90
25024;DHT22;13033;50.936;5.334;2023-08-06T13:21:58;15.30;99.90
25024;DHT22;13033;50.936;5.334;2023-08-06T13:24:24;15.20;99.90
25024;DHT22;13033;50.936;5.334;2023-08-06T13:26:49;15.10;99.90
25024;DHT22;13033;50.936;5.334;2023-08-06T13:29:15;15.10;99.90
25024;DHT22;13033;50.936;5.334;2023-08-06T13:31:40;15.10;99.90
25024;DHT22;13033;50.936;5.334;2023-08-06T13:34:06;15.10;99.90
25024;DHT22;13033;50.936;5.334;2023-08-06T13:36:32;15.20;99.90
25024;DHT22;13033;50.936;5.334;2023-08-06T13:38:57;15.30;99.90
25024;DHT22;13033;50.936;5.334;2023-08-06T13:41:23;15.30;99.90
25024;DHT22;13033;50.936;5.334;2023-08-06T13:43:49;15.30;99.90
25024;DHT22;13033;50.936;5.334;2023-08-06T13:46:15;15.10;99.90
25024;DHT22;13033;50.936;5.334;2023-08-06T13:48:45;15.10;99.90
25024;DHT22;13033;50.936;5.334;2023-08-06T13:51:12;15.10;99.90
25024;DHT22;13033;50.936;5.334;2023-08-06T13:53:39;15.10;99.90
25024;DHT22;13033;50.936;5.334;2023-08-06T13:56:05;15.20;99.90
25024;DHT22;13033;50.936;5.334;2023-08-06T13:58:32;15.20;99.90
25024;DHT22;13033;50.936;5.334;2023-08-06T14:00:57;15.20;99.90
25024;DHT22;13033;50.936;5.334;2023-08-06T14:03:23;15.10;99.90
25024;DHT22;13033;50.936;5.334;2023-08-06T14:05:49;15.00;99.90
25024;DHT22;13033;50.936;5.334;2023-08-06T14:08:15;15.00;99.90
25024;DHT22;13033;50.936;5.334;2023-08-06T14:10:44;14.90;99.90
25024;DHT22;13033;50.936;5.334;2023-08-06T14:13:10;14.80;99.90
25024;DHT22;13033;50.936;5.334;2023-08-06T14:15:35;14.80;99.90
25024;DHT22;13033;50.936;5.334;2023-08-06T14:18:02;14.80;99.90
25024;DHT22;13033;50.936;5.334;2023-08-06T14:20:28;14.90;99.90
25024;DHT22;13033;50.936;5.334;2023-08-06T14:22:54;15.00;99.90
25024;DHT22;13033;50.936;5.334;2023-08-06T14:25:19;14.90;99.90
25024;DHT22;13033;50.936;5.334;2023-08-06T14:27:45;15.00;99.90
25024;DHT22;13033;50.936;5.334;2023-08-06T14:30:11;15.20;99.90
25024;DHT22;13033;50.936;5.334;2023-08-06T14:32:37;15.20;99.90
25024;DHT22;13033;50.936;5.334;2023-08-06T14:35:03;15.30;99.90
25024;DHT22;13033;50.936;5.334;2023-08-06T14:37:28;15.20;99.90
25024;DHT22;13033;50.936;5.334;2023-08-06T14:39:54;15.20;99.90
25024;DHT22;13033;50.936;5.334;2023-08-06T14:42:20;15.20;99.90
25024;DHT22;13033;50.936;5.334;2023-08-06T14:44:45;15.10;99.90
25024;DHT22;13033;50.936;5.334;2023-08-06T14:47:11;15.00;99.90
25024;DHT22;13033;50.936;5.334;2023-08-06T14:49:38;15.00;99.90
25024;DHT22;13033;50.936;5.334;2023-08-06T14:52:04;14.90;99.90
25024;DHT22;13033;50.936;5.334;2023-08-06T14:54:29;14.90;99.90
25024;DHT22;13033;50.936;5.334;2023-08-06T14:56:56;14.70;99.90
25024;DHT22;13033;50.936;5.334;2023-08-06T14:59:22;14.60;99.90
25024;DHT22;13033;50.936;5.334;2023-08-06T15:01:48;14.60;99.90
25024;DHT22;13033;50.936;5.334;2023-08-06T15:04:13;14.60;99.90
25024;DHT22;13033;50.936;5.334;2023-08-06T15:06:39;14.60;99.90
25024;DHT22;13033;50.936;5.334;2023-08-06T15:09:05;14.60;99.90
25024;DHT22;13033;50.936;5.334;2023-08-06T15:11:30;14.60;99.90
25024;DHT22;13033;50.936;5.334;2023-08-06T15:13:56;14.50;99.90
25024;DHT22;13033;50.936;5.334;2023-08-06T15:16:22;14.50;99.90
25024;DHT22;13033;50.936;5.334;2023-08-06T15:18:47;14.50;99.90
25024;DHT22;13033;50.936;5.334;2023-08-06T15:21:14;14.50;99.90
25024;DHT22;13033;50.936;5.334;2023-08-06T15:23:40;14.40;99.90
25024;DHT22;13033;50.936;5.334;2023-08-06T15:26:05;14.40;99.90
25024;DHT22;13033;50.936;5.334;2023-08-06T15:28:31;14.40;99.90
25024;DHT22;13033;50.936;5.334;2023-08-06T15:30:57;14.40;99.90
25024;DHT22;13033;50.936;5.334;2023-08-06T15:33:22;14.40;99.90
25024;DHT22;13033;50.936;5.334;2023-08-06T15:35:48;14.50;99.90
25024;DHT22;13033;50.936;5.334;2023-08-06T15:38:14;14.60;99.90
25024;DHT22;13033;50.936;5.334;2023-08-06T15:40:40;14.60;99.90
25024;DHT22;13033;50.936;5.334;2023-08-06T15:43:06;14.60;99.90